createdAt,value
2019-03-23T00:01:27.079Z,11.70
2019-03-23T00:03:54.884Z,11.60
2019-03-23T00:06:30.442Z,11.60
2019-03-23T00:08:52.550Z,11.40
2019-03-23T00:11:20.474Z,11.40
2019-03-23T00:13:48.565Z,11.20
2019-03-23T00:16:16.312Z,11.20
2019-03-23T00:18:44.066Z,11.20
2019-03-23T00:21:11.828Z,11.20
2019-03-23T00:23:39.591Z,11.10
2019-03-23T00:26:07.347Z,11.00
2019-03-23T00:28:35.207Z,10.80
2019-03-23T00:31:03.366Z,10.90
2019-03-23T00:33:31.181Z,10.90
2019-03-23T00:35:59.140Z,10.80
2019-03-23T00:38:26.930Z,10.80
2019-03-23T00:40:54.699Z,10.70
2019-03-23T00:43:22.684Z,10.70
2019-03-23T00:45:50.490Z,10.80
2019-03-23T00:48:18.264Z,10.90
2019-03-23T00:50:46.218Z,11.00
2019-03-23T00:53:14.190Z,11.20
2019-03-23T00:55:41.904Z,11.10
2019-03-23T00:58:09.631Z,11.30
2019-03-23T01:00:37.348Z,11.30
2019-03-23T01:03:05.391Z,11.30
2019-03-23T01:05:33.235Z,11.40
2019-03-23T01:08:01.450Z,11.40
2019-03-23T01:10:29.301Z,11.40
2019-03-23T01:12:57.030Z,11.50
2019-03-23T01:15:24.778Z,11.50
2019-03-23T01:17:52.601Z,11.50
2019-03-23T01:20:20.353Z,11.40
2019-03-23T01:22:48.129Z,11.40
2019-03-23T01:25:16.380Z,11.40
2019-03-23T01:27:44.203Z,11.30
2019-03-23T01:30:12.773Z,11.20
2019-03-23T01:32:40.789Z,11.20
2019-03-23T01:35:09.091Z,11.20
2019-03-23T01:37:37.009Z,11.00
2019-03-23T01:40:05.806Z,10.90
2019-03-23T01:42:33.989Z,10.80
2019-03-23T01:45:02.948Z,10.80
2019-03-23T01:47:31.171Z,10.70
2019-03-23T01:50:00.082Z,10.70
2019-03-23T01:52:29.396Z,10.70
2019-03-23T01:54:58.421Z,10.60
2019-03-23T01:57:27.462Z,10.60
2019-03-23T01:59:56.791Z,10.70
2019-03-23T02:02:25.886Z,10.70
2019-03-23T02:04:54.727Z,10.70
2019-03-23T02:07:23.434Z,10.50
2019-03-23T02:09:52.243Z,10.50
2019-03-23T02:12:21.016Z,10.40
2019-03-23T02:14:50.433Z,10.40
2019-03-23T02:17:19.409Z,10.30
2019-03-23T02:19:49.054Z,10.20
2019-03-23T02:22:16.814Z,10.10
2019-03-23T02:24:45.809Z,10.10
2019-03-23T02:27:14.614Z,10.10
2019-03-23T02:29:43.573Z,10.20
2019-03-23T02:32:11.936Z,10.20
2019-03-23T02:34:41.125Z,10.20
2019-03-23T02:37:09.842Z,10.10
2019-03-23T02:39:39.262Z,10.10
2019-03-23T02:42:08.388Z,10.00
2019-03-23T02:44:37.452Z,9.90
2019-03-23T02:47:06.363Z,9.90
2019-03-23T02:49:35.740Z,10.00
2019-03-23T02:52:04.755Z,10.00
2019-03-23T02:54:33.759Z,9.80
2019-03-23T02:57:02.597Z,9.70
2019-03-23T02:59:32.115Z,9.40
2019-03-23T03:02:00.956Z,9.30
2019-03-23T03:04:30.352Z,9.10
2019-03-23T03:06:59.682Z,9.10
2019-03-23T03:09:29.302Z,8.90
2019-03-23T03:11:58.187Z,8.90
2019-03-23T03:14:27.283Z,8.90
2019-03-23T03:16:56.678Z,8.80
2019-03-23T03:19:25.625Z,8.60
2019-03-23T03:21:54.452Z,8.50
2019-03-23T03:24:23.500Z,8.50
2019-03-23T03:26:52.489Z,8.50
2019-03-23T03:29:21.537Z,8.70
2019-03-23T03:31:50.683Z,8.60
2019-03-23T03:34:20.247Z,8.60
2019-03-23T03:36:48.374Z,8.70
2019-03-23T03:39:17.366Z,8.70
2019-03-23T03:41:46.247Z,8.20
2019-03-23T03:44:15.653Z,8.00
2019-03-23T03:46:43.837Z,8.00
2019-03-23T03:49:13.232Z,8.00
2019-03-23T03:51:42.687Z,7.90
2019-03-23T03:54:11.740Z,8.10
2019-03-23T03:56:39.869Z,8.10
2019-03-23T03:59:09.414Z,8.20
2019-03-23T04:01:37.648Z,8.50
2019-03-23T04:04:06.716Z,8.60
2019-03-23T04:06:35.880Z,8.60
2019-03-23T04:09:06.407Z,8.50
2019-03-23T04:11:35.425Z,8.40
2019-03-23T04:14:04.221Z,8.40
2019-03-23T04:16:33.310Z,8.20
2019-03-23T04:19:02.299Z,8.10
2019-03-23T04:21:31.484Z,7.90
2019-03-23T04:24:00.528Z,7.80
2019-03-23T04:26:29.654Z,8.10
2019-03-23T04:28:57.565Z,8.10
2019-03-23T04:31:26.346Z,8.20
2019-03-23T04:33:55.076Z,8.30
2019-03-23T04:36:25.987Z,8.50
2019-03-23T04:38:54.075Z,8.50
2019-03-23T04:41:22.044Z,8.30
2019-03-23T04:43:50.734Z,8.30
2019-03-23T04:46:19.777Z,8.30
2019-03-23T04:48:48.535Z,8.30
2019-03-23T04:51:17.889Z,8.30
2019-03-23T04:53:47.374Z,8.20
2019-03-23T04:56:15.502Z,8.20
2019-03-23T04:58:44.522Z,8.10
2019-03-23T05:01:13.737Z,8.00
2019-03-23T05:03:43.088Z,7.90
2019-03-23T05:06:11.825Z,8.00
2019-03-23T05:08:40.949Z,8.00
2019-03-23T05:11:10.225Z,7.80
2019-03-23T05:13:38.673Z,7.70
2019-03-23T05:16:07.802Z,7.60
2019-03-23T05:18:36.085Z,7.60
2019-03-23T05:21:05.117Z,7.60
2019-03-23T05:23:34.516Z,7.80
2019-03-23T05:26:03.862Z,7.70
2019-03-23T05:28:32.281Z,7.70
2019-03-23T05:31:01.788Z,7.70
2019-03-23T05:33:31.191Z,7.80
2019-03-23T05:35:59.530Z,7.90
2019-03-23T05:38:28.391Z,7.90
2019-03-23T05:40:57.988Z,8.00
2019-03-23T05:43:27.603Z,8.00
2019-03-23T05:45:56.224Z,8.00
2019-03-23T05:48:25.174Z,8.00
2019-03-23T05:50:54.710Z,8.20
2019-03-23T05:53:23.322Z,8.10
2019-03-23T05:55:51.819Z,8.10
2019-03-23T05:58:20.619Z,8.00
2019-03-23T06:00:50.338Z,7.90
2019-03-23T06:03:18.665Z,7.90
2019-03-23T06:05:48.077Z,7.90
2019-03-23T06:08:16.373Z,7.80
2019-03-23T06:10:45.294Z,8.00
2019-03-23T06:13:14.193Z,8.00
2019-03-23T06:15:43.000Z,8.10
2019-03-23T06:18:10.743Z,8.20
2019-03-23T06:20:39.477Z,8.20
2019-03-23T06:23:08.653Z,8.30
2019-03-23T06:25:37.554Z,8.30
2019-03-23T06:28:07.348Z,8.30
2019-03-23T06:30:35.986Z,8.30
2019-03-23T06:33:04.054Z,8.20
2019-03-23T06:35:32.833Z,8.20
2019-03-23T06:38:01.671Z,8.40
2019-03-23T06:40:31.949Z,8.50
2019-03-23T06:43:00.172Z,8.40
2019-03-23T06:45:28.970Z,8.50
2019-03-23T06:47:57.691Z,8.50
2019-03-23T06:50:26.517Z,8.60
2019-03-23T06:52:55.522Z,8.50
2019-03-23T06:55:24.301Z,8.50
2019-03-23T06:57:53.755Z,8.50
2019-03-23T07:00:22.890Z,8.60
2019-03-23T07:02:51.051Z,8.90
2019-03-23T07:05:19.947Z,8.90
2019-03-23T07:07:48.686Z,8.90
2019-03-23T07:10:17.518Z,8.80
2019-03-23T07:12:45.278Z,9.00
2019-03-23T07:15:19.908Z,8.80
2019-03-23T07:17:45.038Z,9.00
2019-03-23T07:20:14.548Z,9.00
2019-03-23T07:22:43.872Z,9.20
2019-03-23T07:25:13.050Z,9.10
2019-03-23T07:27:41.773Z,9.00
2019-03-23T07:30:12.112Z,9.00
2019-03-23T07:32:40.890Z,9.00
2019-03-23T07:35:10.142Z,9.30
2019-03-23T07:37:38.872Z,9.40
2019-03-23T07:40:08.701Z,9.50
2019-03-23T07:42:37.436Z,9.70
2019-03-23T07:45:06.710Z,9.60
2019-03-23T07:47:35.550Z,9.70
2019-03-23T07:50:05.394Z,9.70
2019-03-23T07:52:34.202Z,9.80
2019-03-23T07:55:10.558Z,9.80
2019-03-23T07:57:39.578Z,9.80
2019-03-23T08:00:09.438Z,9.90
2019-03-23T08:02:38.221Z,9.80
2019-03-23T08:05:07.493Z,9.90
2019-03-23T08:07:36.213Z,10.10
2019-03-23T08:10:05.401Z,10.20
2019-03-23T08:12:34.422Z,9.50
2019-03-23T08:15:03.728Z,9.50
2019-03-23T08:17:32.565Z,9.80
2019-03-23T08:20:01.718Z,9.90
2019-03-23T08:22:31.176Z,10.00
2019-03-23T08:24:59.896Z,10.00
2019-03-23T08:27:28.931Z,10.20
2019-03-23T08:29:57.902Z,10.20
2019-03-23T08:32:26.517Z,10.10
2019-03-23T08:34:55.315Z,10.10
2019-03-23T08:37:24.154Z,10.50
2019-03-23T08:39:52.799Z,10.40
2019-03-23T08:42:21.535Z,10.40
2019-03-23T08:44:50.362Z,10.40
2019-03-23T08:47:19.301Z,10.30
2019-03-23T08:49:47.901Z,10.40
2019-03-23T08:52:16.638Z,10.40
2019-03-23T08:54:45.370Z,10.30
2019-03-23T08:57:14.106Z,10.40
2019-03-23T08:59:42.982Z,10.50
2019-03-23T09:02:11.835Z,10.60
2019-03-23T09:04:40.630Z,10.50
2019-03-23T09:07:09.707Z,10.60
2019-03-23T09:09:38.940Z,10.90
2019-03-23T09:12:08.154Z,10.70
2019-03-23T09:14:37.292Z,10.70
2019-03-23T09:17:06.448Z,11.00
2019-03-23T09:19:35.510Z,11.10
2019-03-23T09:22:04.470Z,11.20
2019-03-23T09:24:33.490Z,11.10
2019-03-23T09:27:02.211Z,11.20
2019-03-23T09:29:31.216Z,11.30
2019-03-23T09:32:00.257Z,11.30
2019-03-23T09:34:29.573Z,11.30
2019-03-23T09:36:57.345Z,11.40
2019-03-23T09:39:25.515Z,11.20
2019-03-23T09:41:54.395Z,11.00
2019-03-23T09:44:23.848Z,10.80
2019-03-23T09:46:53.093Z,10.80
2019-03-23T09:49:22.147Z,11.00
2019-03-23T09:51:51.298Z,11.20
2019-03-23T09:54:20.025Z,10.90
2019-03-23T09:56:49.340Z,10.90
2019-03-23T09:59:18.119Z,11.10
2019-03-23T10:01:47.602Z,11.20
2019-03-23T10:04:16.639Z,11.50
2019-03-23T10:06:45.674Z,11.40
2019-03-23T10:09:14.950Z,11.50
2019-03-23T10:11:43.877Z,11.50
2019-03-23T10:14:12.868Z,11.60
2019-03-23T10:16:41.830Z,11.70
2019-03-23T10:19:11.194Z,11.90
2019-03-23T10:21:40.454Z,11.90
2019-03-23T10:24:09.608Z,11.70
2019-03-23T10:26:39.061Z,11.80
2019-03-23T10:29:09.046Z,11.70
2019-03-23T10:31:38.139Z,11.60
2019-03-23T10:34:07.160Z,11.80
2019-03-23T10:36:36.437Z,11.70
2019-03-23T10:39:06.007Z,11.70
2019-03-23T10:41:34.727Z,11.70
2019-03-23T10:44:03.984Z,11.80
2019-03-23T10:46:32.874Z,12.00
2019-03-23T10:49:01.801Z,12.00
2019-03-23T10:51:31.017Z,11.80
2019-03-23T10:53:59.677Z,11.70
2019-03-23T10:56:29.343Z,11.60
2019-03-23T10:59:03.179Z,11.70
2019-03-23T11:01:31.701Z,12.10
2019-03-23T11:04:00.391Z,12.70
2019-03-23T11:06:29.045Z,12.70
2019-03-23T11:08:56.934Z,12.80
2019-03-23T11:11:25.701Z,13.00
2019-03-23T11:13:55.002Z,12.80
2019-03-23T11:16:23.842Z,12.90
2019-03-23T11:18:52.826Z,12.60
2019-03-23T11:21:21.881Z,12.90
2019-03-23T11:23:50.841Z,13.00
2019-03-23T11:26:20.042Z,13.40
2019-03-23T11:28:49.182Z,13.60
2019-03-23T11:31:36.132Z,13.80
2019-03-23T11:34:04.101Z,14.40
2019-03-23T11:36:32.370Z,14.10
2019-03-23T11:39:00.354Z,14.30
2019-03-23T11:41:28.537Z,14.40
2019-03-23T11:43:56.502Z,14.10
2019-03-23T11:46:24.220Z,13.90
2019-03-23T11:48:52.261Z,14.10
2019-03-23T11:51:20.219Z,14.60
2019-03-23T11:53:48.113Z,14.90
2019-03-23T11:56:15.830Z,14.80
2019-03-23T11:58:44.358Z,14.90
2019-03-23T12:01:16.333Z,14.90
2019-03-23T12:03:54.247Z,15.40
2019-03-23T12:06:22.318Z,15.50
2019-03-23T12:08:51.534Z,15.10
2019-03-23T12:11:20.215Z,15.10
2019-03-23T12:13:47.923Z,15.10
2019-03-23T12:16:15.968Z,15.60
2019-03-23T12:18:44.049Z,15.80
2019-03-23T12:21:12.227Z,15.80
2019-03-23T12:23:40.642Z,16.10
2019-03-23T12:26:08.627Z,16.50
2019-03-23T12:28:36.880Z,16.50
2019-03-23T12:31:04.866Z,16.00
2019-03-23T12:33:32.909Z,15.80
2019-03-23T12:36:01.295Z,15.60
2019-03-23T12:38:29.193Z,15.90
2019-03-23T12:40:57.272Z,16.10
2019-03-23T12:43:26.170Z,16.00
2019-03-23T12:45:55.477Z,16.20
2019-03-23T12:48:24.538Z,16.70
2019-03-23T12:50:54.082Z,16.90
2019-03-23T12:53:21.784Z,16.60
2019-03-23T12:55:52.542Z,16.20
2019-03-23T12:58:22.846Z,15.80
2019-03-23T13:00:52.159Z,15.70
2019-03-23T13:03:21.586Z,15.40
2019-03-23T13:05:50.469Z,15.10
2019-03-23T13:08:19.924Z,14.70
2019-03-23T13:10:48.949Z,14.80
2019-03-23T13:13:18.264Z,14.60
2019-03-23T13:15:48.274Z,15.00
2019-03-23T13:18:26.909Z,14.80
2019-03-23T13:20:53.210Z,14.50
2019-03-23T13:23:21.254Z,14.60
2019-03-23T13:25:49.478Z,14.80
2019-03-23T13:28:17.209Z,15.40
2019-03-23T13:30:45.182Z,15.40
2019-03-23T13:33:13.091Z,15.60
2019-03-23T13:35:41.046Z,15.90
2019-03-23T13:38:09.898Z,16.00
2019-03-23T13:40:38.861Z,16.00
2019-03-23T13:43:08.178Z,16.00
2019-03-23T13:45:42.600Z,16.00
2019-03-23T13:48:09.233Z,16.00
2019-03-23T13:50:38.221Z,15.50
2019-03-23T13:53:07.169Z,15.30
2019-03-23T13:55:35.928Z,15.60
2019-03-23T13:58:11.734Z,15.50
2019-03-23T14:00:40.801Z,15.40
2019-03-23T14:03:10.184Z,15.10
2019-03-23T14:05:39.090Z,15.00
2019-03-23T14:08:08.275Z,14.70
2019-03-23T14:10:37.210Z,14.70
2019-03-23T14:13:06.607Z,14.90
2019-03-23T14:15:35.777Z,14.80
2019-03-23T14:18:04.077Z,14.60
2019-03-23T14:20:33.227Z,14.30
2019-03-23T14:23:13.631Z,14.30
2019-03-23T14:25:42.628Z,14.30
2019-03-23T14:28:10.341Z,14.20
2019-03-23T14:30:38.254Z,14.30
2019-03-23T14:33:08.905Z,14.00
2019-03-23T14:35:38.412Z,14.30
2019-03-23T14:38:06.679Z,14.10
2019-03-23T14:40:50.345Z,13.80
2019-03-23T14:43:27.089Z,13.60
2019-03-23T14:45:56.271Z,13.40
2019-03-23T14:48:24.974Z,13.50
2019-03-23T14:50:52.942Z,13.40
2019-03-23T14:53:20.733Z,13.50
2019-03-23T14:55:48.587Z,13.70
2019-03-23T14:58:16.338Z,14.00
2019-03-23T15:00:44.596Z,14.10
2019-03-23T15:03:12.396Z,14.10
2019-03-23T15:05:40.186Z,14.50
2019-03-23T15:08:08.324Z,14.60
2019-03-23T15:10:36.554Z,14.50
2019-03-23T15:13:04.341Z,14.50
2019-03-23T15:15:32.853Z,14.40
2019-03-23T15:18:00.754Z,14.50
2019-03-23T15:20:29.608Z,14.50
2019-03-23T15:22:57.881Z,14.30
2019-03-23T15:25:25.802Z,14.20
2019-03-23T15:27:54.136Z,14.50
2019-03-23T15:30:22.147Z,14.50
2019-03-23T15:32:50.554Z,14.40
2019-03-23T15:35:18.509Z,14.10
2019-03-23T15:37:46.809Z,13.70
2019-03-23T15:40:16.250Z,13.60
2019-03-23T15:42:45.101Z,13.50
2019-03-23T15:45:13.697Z,13.40
2019-03-23T15:47:41.801Z,13.40
2019-03-23T15:50:10.086Z,13.30
2019-03-23T15:52:37.827Z,13.10
2019-03-23T15:55:06.177Z,13.10
2019-03-23T15:57:35.077Z,13.40
2019-03-23T16:00:05.592Z,13.50
2019-03-23T16:02:34.605Z,13.20
2019-03-23T16:05:04.174Z,13.20
2019-03-23T16:07:34.041Z,13.10
2019-03-23T16:10:03.970Z,13.20
2019-03-23T16:12:35.326Z,13.30
2019-03-23T16:15:06.313Z,13.40
2019-03-23T16:17:34.030Z,13.60
2019-03-23T16:20:03.231Z,13.60
2019-03-23T16:22:32.011Z,13.60
2019-03-23T16:25:00.861Z,13.60
2019-03-23T16:27:29.586Z,13.70
2019-03-23T16:29:58.382Z,13.60
2019-03-23T16:32:27.261Z,13.50
2019-03-23T16:34:56.325Z,13.50
2019-03-23T16:37:25.046Z,13.10
2019-03-23T16:39:55.178Z,12.80
2019-03-23T16:42:24.226Z,12.70
2019-03-23T16:44:53.101Z,12.70
2019-03-23T16:47:22.074Z,12.90
2019-03-23T16:49:50.894Z,13.20
2019-03-23T16:52:19.689Z,13.00
2019-03-23T16:54:48.951Z,12.90
2019-03-23T16:57:18.146Z,12.90
2019-03-23T16:59:45.865Z,12.80
2019-03-23T17:02:14.475Z,12.80
2019-03-23T17:04:43.210Z,12.70
2019-03-23T17:07:11.929Z,12.70
2019-03-23T17:09:40.562Z,12.70
2019-03-23T17:12:09.565Z,12.50
2019-03-23T17:14:38.810Z,12.70
2019-03-23T17:17:08.010Z,12.90
2019-03-23T17:19:37.584Z,12.70
2019-03-23T17:22:07.039Z,12.50
2019-03-23T17:24:35.967Z,12.60
2019-03-23T17:27:05.083Z,12.70
2019-03-23T17:29:33.826Z,12.50
2019-03-23T17:32:02.578Z,12.60
2019-03-23T17:34:31.723Z,12.40
2019-03-23T17:37:00.678Z,12.30
2019-03-23T17:39:29.588Z,12.20
2019-03-23T17:41:59.103Z,12.30
2019-03-23T17:44:28.361Z,12.20
2019-03-23T17:46:57.410Z,12.30
2019-03-23T17:49:26.386Z,12.30
2019-03-23T17:51:55.887Z,12.20
2019-03-23T17:54:24.637Z,12.30
2019-03-23T17:56:54.177Z,12.30
2019-03-23T17:59:23.309Z,12.40
2019-03-23T18:01:52.702Z,12.30
2019-03-23T18:04:21.677Z,12.30
2019-03-23T18:06:50.593Z,12.30
2019-03-23T18:09:19.701Z,12.10
2019-03-23T18:11:48.485Z,12.20
2019-03-23T18:14:17.667Z,12.30
2019-03-23T18:16:46.310Z,12.40
2019-03-23T18:19:15.030Z,12.20
2019-03-23T18:21:43.840Z,12.10
2019-03-23T18:24:12.604Z,12.10
2019-03-23T18:26:41.234Z,12.10
2019-03-23T18:29:10.092Z,11.90
2019-03-23T18:31:38.720Z,11.90
2019-03-23T18:34:07.453Z,11.80
2019-03-23T18:36:36.325Z,11.70
2019-03-23T18:39:05.478Z,11.50
2019-03-23T18:41:34.289Z,11.50
2019-03-23T18:44:03.099Z,11.40
2019-03-23T18:46:31.820Z,11.40
2019-03-23T18:49:00.840Z,11.40
2019-03-23T18:51:29.573Z,11.20
2019-03-23T18:53:58.622Z,11.30
2019-03-23T18:56:27.357Z,11.20
2019-03-23T18:58:55.958Z,11.30
2019-03-23T19:01:24.706Z,11.20
2019-03-23T19:03:53.322Z,11.20
2019-03-23T19:06:22.054Z,11.10
2019-03-23T19:08:50.940Z,11.00
2019-03-23T19:11:19.869Z,11.10
2019-03-23T19:13:48.574Z,11.30
2019-03-23T19:16:17.297Z,11.20
2019-03-23T19:18:45.916Z,11.20
2019-03-23T19:21:14.630Z,11.10
2019-03-23T19:23:43.630Z,11.00
2019-03-23T19:26:12.606Z,11.00
2019-03-23T19:28:42.194Z,11.00
2019-03-23T19:31:10.253Z,11.10
2019-03-23T19:33:39.289Z,11.20
2019-03-23T19:39:43.156Z,11.10
2019-03-23T19:42:11.630Z,11.10
2019-03-23T19:44:40.196Z,11.10
2019-03-23T19:47:09.200Z,11.10
2019-03-23T19:49:37.898Z,11.10
2019-03-23T19:52:06.760Z,11.00
2019-03-23T19:54:35.270Z,11.00
2019-03-23T19:57:03.903Z,11.10
2019-03-23T19:59:32.323Z,11.30
2019-03-23T20:02:00.856Z,11.30
2019-03-23T20:04:29.540Z,11.30
2019-03-23T20:06:58.715Z,11.20
2019-03-23T20:09:27.311Z,11.30
2019-03-23T20:11:55.955Z,11.40
2019-03-23T20:14:24.578Z,11.40
2019-03-23T20:16:53.225Z,11.40
2019-03-23T20:19:21.958Z,11.20
2019-03-23T20:21:50.657Z,11.10
2019-03-23T20:24:19.295Z,11.20
2019-03-23T20:26:47.879Z,11.20
2019-03-23T20:29:16.496Z,11.30
2019-03-23T20:31:45.609Z,11.30
2019-03-23T20:34:14.181Z,11.30
2019-03-23T20:36:42.774Z,11.20
2019-03-23T20:39:11.658Z,11.10
2019-03-23T20:41:40.325Z,11.10
2019-03-23T20:44:09.941Z,11.10
2019-03-23T20:46:38.747Z,11.10
2019-03-23T20:49:08.890Z,11.20
2019-03-23T20:51:37.672Z,11.10
2019-03-23T20:54:06.407Z,11.00
2019-03-23T20:56:35.202Z,10.80
2019-03-23T20:59:03.815Z,10.90
2019-03-23T21:01:33.525Z,10.90
2019-03-23T21:04:02.033Z,10.90
2019-03-23T21:06:30.709Z,10.80
2019-03-23T21:08:59.428Z,10.70
2019-03-23T21:11:28.102Z,10.70
2019-03-23T21:13:56.703Z,10.60
2019-03-23T21:16:25.289Z,10.70
2019-03-23T21:18:53.787Z,10.60
2019-03-23T21:21:22.430Z,10.50
2019-03-23T21:23:52.216Z,10.60
2019-03-23T21:26:21.170Z,10.50
2019-03-23T21:28:50.107Z,10.60
2019-03-23T21:31:19.046Z,10.50
2019-03-23T21:33:48.057Z,10.60
2019-03-23T21:36:16.809Z,10.70
2019-03-23T21:38:46.074Z,10.60
2019-03-23T21:41:15.025Z,10.50
2019-03-23T21:43:44.045Z,10.60
2019-03-23T21:46:13.333Z,10.40
2019-03-23T21:48:42.625Z,10.50
2019-03-23T21:51:11.373Z,10.50
2019-03-23T21:53:41.132Z,10.50
2019-03-23T21:56:09.970Z,10.50
2019-03-23T21:58:40.266Z,10.40
2019-03-23T22:01:09.973Z,10.30
2019-03-23T22:03:39.098Z,10.40
2019-03-23T22:06:07.956Z,10.30
2019-03-23T22:08:37.001Z,10.30
2019-03-23T22:11:05.663Z,10.20
2019-03-23T22:13:34.576Z,10.10
2019-03-23T22:16:05.116Z,10.10
2019-03-23T22:18:33.920Z,10.20
2019-03-23T22:21:02.649Z,10.20
2019-03-23T22:23:31.362Z,10.20
2019-03-23T22:26:00.472Z,10.30
2019-03-23T22:28:29.745Z,10.10
2019-03-23T22:30:59.008Z,10.10
2019-03-23T22:33:28.582Z,10.10
2019-03-23T22:35:57.677Z,10.10
2019-03-23T22:38:26.862Z,9.90
2019-03-23T22:40:55.461Z,10.10
2019-03-23T22:43:24.258Z,10.20
2019-03-23T22:45:53.274Z,10.10
2019-03-23T22:48:22.279Z,10.10
2019-03-23T22:50:51.834Z,10.00
2019-03-23T22:53:21.078Z,9.90
2019-03-23T22:55:50.027Z,9.90
2019-03-23T22:58:18.625Z,9.80
2019-03-23T23:00:48.380Z,9.90
2019-03-23T23:03:17.341Z,10.00
2019-03-23T23:05:46.330Z,9.90
2019-03-23T23:08:15.078Z,9.80
2019-03-23T23:10:44.052Z,9.80
2019-03-23T23:13:13.208Z,10.00
2019-03-23T23:15:42.908Z,9.90
2019-03-23T23:18:11.846Z,9.90
2019-03-23T23:20:40.830Z,10.10
2019-03-23T23:23:09.678Z,9.80
2019-03-23T23:25:38.288Z,9.80
2019-03-23T23:28:07.318Z,9.90
2019-03-23T23:30:36.198Z,9.80
2019-03-23T23:33:05.410Z,9.80
2019-03-23T23:35:34.461Z,9.80
2019-03-23T23:38:03.584Z,9.70
2019-03-23T23:40:32.471Z,9.60
2019-03-23T23:43:01.490Z,9.50
2019-03-23T23:45:30.750Z,9.50
2019-03-23T23:47:59.589Z,9.50
2019-03-23T23:50:28.654Z,9.30
2019-03-23T23:52:57.546Z,9.40
2019-03-23T23:55:26.408Z,9.30
2019-03-23T23:57:55.896Z,9.40
